Time;durP1;ratioP1;P1;durP2;ratioP2;P2;SDS_P1;SDS_P2;PMS_P1;PMS_P2;Temp;Humidity;BMP_temperature;BMP_pressure;BME280_temperature;BME280_humidity;BME280_pressure;Samples;Min_cycle;Max_cycle;Signal;HPM_P1;HPM_P2
2023/02/28 00:00:12;;;;;;;20.08;10.68;;;;;;;7.69;81.52;94362.63;5105293;28;20091;-78
2023/02/28 00:02:38;;;;;;;20.45;10.15;;;;;;;7.72;81.43;94362.88;5105405;28;20073;-78
2023/02/28 00:05:04;;;;;;;13.05;7.95;;;;;;;7.77;81.18;94360.16;5105112;28;20243;-78
2023/02/28 00:07:31;;;;;;;15.75;6.90;;;;;;;7.82;80.30;94362.75;5104999;28;20222;-79
2023/02/28 00:09:57;;;;;;;10.80;6.18;;;;;;;7.83;80.27;94361.66;5104959;28;20024;-78
2023/02/28 00:12:22;;;;;;;16.65;6.93;;;;;;;7.78;80.00;94350.34;5104844;28;20205;-78
2023/02/28 00:14:48;;;;;;;13.73;6.65;;;;;;;7.79;79.91;94365.97;5105123;28;20064;-79
2023/02/28 00:17:14;;;;;;;15.25;6.05;;;;;;;7.78;79.70;94366.25;5104955;28;20044;-79
2023/02/28 00:19:39;;;;;;;9.10;5.32;;;;;;;7.74;79.53;94362.59;5104421;28;20035;-79
2023/02/28 00:22:05;;;;;;;12.82;5.95;;;;;;;7.76;79.58;94365.75;5104618;28;20023;-79
2023/02/28 00:24:30;;;;;;;10.15;5.10;;;;;;;7.78;79.42;94371.56;5104598;28;20031;-79
2023/02/28 00:26:56;;;;;;;11.52;5.07;;;;;;;7.76;79.27;94373.72;5104766;28;20032;-78
2023/02/28 00:29:21;;;;;;;9.93;4.65;;;;;;;7.75;79.10;94374.78;5104754;28;20044;-78
2023/02/28 00:31:46;;;;;;;8.90;4.80;;;;;;;7.78;78.78;94374.22;5104544;28;20024;-78
2023/02/28 00:34:12;;;;;;;10.48;4.90;;;;;;;7.78;78.34;94363.63;5104648;28;20031;-77
2023/02/28 00:36:37;;;;;;;15.40;4.75;;;;;;;7.76;78.70;94363.09;5103339;28;20370;-78
2023/02/28 00:39:03;;;;;;;12.57;4.90;;;;;;;7.75;79.08;94372.91;5104440;28;20024;-78
2023/02/28 00:41:28;;;;;;;11.73;5.57;;;;;;;7.78;78.86;94367.06;5104566;28;20020;-78
2023/02/28 00:43:54;;;;;;;15.63;5.90;;;;;;;7.76;78.81;94357.81;5104381;28;20156;-78
2023/02/28 00:46:19;;;;;;;12.75;5.32;;;;;;;7.72;78.72;94359.44;5104083;28;20246;-78
2023/02/28 00:48:45;;;;;;;13.02;5.57;;;;;;;7.71;79.10;94360.50;5104330;28;20028;-78
2023/02/28 00:51:10;;;;;;;10.05;5.32;;;;;;;7.69;79.02;94368.72;5104215;28;20329;-78
2023/02/28 00:53:36;;;;;;;16.75;6.35;;;;;;;7.55;78.99;94358.03;5104330;28;20024;-78
2023/02/28 00:56:02;;;;;;;11.75;5.82;;;;;;;7.49;79.63;94364.44;5104230;28;20035;-78
2023/02/28 00:58:28;;;;;;;13.10;6.60;;;;;;;7.39;79.67;94375.16;5104023;28;20032;-79
2023/02/28 01:00:54;;;;;;;15.65;6.95;;;;;;;7.30;80.14;94372.31;5104124;28;20129;-79
2023/02/28 01:03:21;;;;;;;14.65;6.50;;;;;;;7.26;80.04;94370.50;5103884;28;20048;-78
2023/02/28 01:05:47;;;;;;;13.85;6.63;;;;;;;7.17;80.20;94365.78;5103919;28;20095;-79
2023/02/28 01:08:13;;;;;;;14.23;7.20;;;;;;;7.10;80.42;94372.47;5104047;28;20023;-78
2023/02/28 01:10:39;;;;;;;18.42;8.73;;;;;;;6.95;80.94;94362.81;5103958;28;20027;-79
2023/02/28 01:13:05;;;;;;;18.20;8.52;;;;;;;6.90;81.33;94368.94;5102712;28;20019;-78
2023/02/28 01:15:31;;;;;;;20.75;9.18;;;;;;;6.83;81.79;94363.16;5103732;28;20218;-78
2023/02/28 01:17:57;;;;;;;21.67;10.95;;;;;;;6.80;82.52;94369.81;5103811;28;20042;-78
2023/02/28 01:20:23;;;;;;;25.67;11.40;;;;;;;6.77;82.99;94367.69;5103640;28;20318;-78
2023/02/28 01:22:49;;;;;;;22.48;10.77;;;;;;;6.75;83.34;94364.53;5103815;28;20020;-78
2023/02/28 01:25:14;;;;;;;18.95;9.07;;;;;;;6.77;83.37;94358.97;5103593;28;20255;-78
2023/02/28 01:27:39;;;;;;;19.80;10.32;;;;;;;6.81;83.31;94344.88;5103785;28;20012;-78
2023/02/28 01:30:09;;;;;;;24.95;12.50;;;;;;;6.77;83.55;94358.97;5103124;28;20094;-78
2023/02/28 01:32:35;;;;;;;29.88;13.70;;;;;;;6.71;83.63;94362.72;5102732;28;20065;-78
2023/02/28 01:35:00;;;;;;;24.42;13.15;;;;;;;6.69;84.07;94357.69;5103489;28;20318;-78
2023/02/28 01:37:26;;;;;;;22.48;13.15;;;;;;;6.74;84.20;94355.00;5103492;28;20023;-78
2023/02/28 01:39:52;;;;;;;23.15;12.25;;;;;;;6.80;84.51;94364.50;5102333;28;20026;-78
2023/02/28 01:42:17;;;;;;;27.10;12.45;;;;;;;6.83;84.78;94363.16;5103171;28;20031;-78
2023/02/28 01:45:01;;;;;;;25.60;13.13;;;;;;;6.86;84.25;94367.91;5103407;28;20057;-78
2023/02/28 01:47:34;;;;;;;22.30;12.63;;;;;;;6.87;84.26;94368.69;5103153;28;20051;-78
2023/02/28 01:50:03;;;;;;;28.90;13.75;;;;;;;6.87;84.43;94372.13;5103177;28;20094;-78
2023/02/28 01:52:30;;;;;;;28.23;13.98;;;;;;;6.90;84.48;94370.78;5103302;28;20023;-78
2023/02/28 01:54:59;;;;;;;27.85;13.32;;;;;;;6.92;84.06;94371.28;5102097;28;20195;-78
2023/02/28 01:57:31;;;;;;;28.00;13.95;;;;;;;6.92;83.75;94371.28;5103220;28;20314;-79
2023/02/28 02:00:04;;;;;;;30.85;14.32;;;;;;;6.84;83.42;94380.66;5103181;28;20306;-79
2023/02/28 02:02:31;;;;;;;30.70;14.65;;;;;;;6.79;83.46;94372.72;5101988;28;20039;-79
2023/02/28 02:05:10;;;;;;;28.35;14.38;;;;;;;6.71;83.82;94370.66;5103051;28;20264;-78
2023/02/28 02:07:38;;;;;;;28.30;13.38;;;;;;;6.67;83.81;94374.94;5103050;28;20035;-78
2023/02/28 02:10:16;;;;;;;40.92;17.67;;;;;;;6.61;84.32;94361.72;5102937;28;20024;-78
2023/02/28 02:12:50;;;;;;;37.67;18.33;;;;;;;6.59;84.54;94353.28;5103123;28;20034;-78
2023/02/28 02:16:04;;;;;;;137.65;20.65;;;;;;;6.56;84.82;94368.91;5103147;28;20255;-79
2023/02/28 02:19:14;;;;;;;159.27;23.65;;;;;;;6.43;85.05;94365.00;5044067;28;20040;-79
2023/02/28 02:22:07;;;;;;;43.70;20.40;;;;;;;6.35;85.83;94352.34;5070485;28;20406;-79
2023/02/28 02:24:57;;;;;;;161.45;23.73;;;;;;;6.39;86.18;94358.66;5102732;28;20058;-79
2023/02/28 02:27:49;;;;;;;190.60;24.80;;;;;;;6.39;86.16;94354.19;5102923;28;20443;-79
2023/02/28 02:30:33;;;;;;;175.15;24.63;;;;;;;6.39;86.52;94361.31;5102873;28;20068;-79
2023/02/28 02:33:23;;;;;;;139.02;24.05;;;;;;;6.37;86.30;94358.16;5102786;28;20031;-78
2023/02/28 02:36:07;;;;;;;281.30;25.50;;;;;;;6.35;86.37;94360.28;5102794;28;20020;-78
2023/02/28 02:39:00;;;;;;;298.65;25.65;;;;;;;6.31;86.55;94359.25;5102728;28;20222;-78
2023/02/28 02:41:25;;;;;;;188.57;23.50;;;;;;;6.19;86.52;94360.38;5102630;28;20020;-78
2023/02/28 02:44:12;;;;;;;158.00;25.05;;;;;;;6.13;86.94;94361.47;5106072;28;20391;-78
2023/02/28 02:46:42;;;;;;;51.30;20.80;;;;;;;6.11;87.42;94366.25;5105408;28;20242;-78
2023/02/28 02:49:17;;;;;;;201.00;25.63;;;;;;;6.16;87.61;94366.22;5106785;28;20042;-79
2023/02/28 02:51:45;;;;;;;135.85;21.67;;;;;;;6.18;87.83;94364.09;5106552;28;20016;-78
2023/02/28 02:54:16;;;;;;;208.93;26.15;;;;;;;6.21;87.81;94362.75;5106582;28;20020;-78
2023/02/28 02:56:45;;;;;;;247.45;23.98;;;;;;;6.19;87.60;94376.25;5106370;28;20024;-78
2023/02/28 02:59:20;;;;;;;162.80;22.60;;;;;;;6.18;87.62;94379.97;5106754;28;20084;-78
2023/02/28 03:01:50;;;;;;;177.85;23.85;;;;;;;6.19;87.67;94386.84;5106441;28;20020;-79
2023/02/28 03:04:21;;;;;;;171.60;25.02;;;;;;;6.22;87.63;94386.28;5106262;28;20028;-78
2023/02/28 03:06:48;;;;;;;215.73;20.85;;;;;;;6.13;87.50;94387.94;5106225;28;20028;-78
2023/02/28 03:09:13;;;;;;;90.15;19.40;;;;;;;6.12;87.77;94402.22;5106381;28;20073;-78
2023/02/28 03:11:40;;;;;;;210.48;23.52;;;;;;;6.14;88.18;94394.81;5106374;28;20049;-78
2023/02/28 03:14:30;;;;;;;75.10;22.85;;;;;;;6.16;88.31;94397.97;5106202;28;20041;-78
2023/02/28 03:17:22;;;;;;;48.45;20.77;;;;;;;6.22;88.38;94404.81;5106072;28;20085;-78
2023/02/28 03:20:30;;;;;;;37.57;20.43;;;;;;;6.26;88.59;94413.03;5105746;28;20048;-78
2023/02/28 03:22:58;;;;;;;49.00;20.63;;;;;;;6.34;88.10;94409.03;5105936;28;20064;-78
2023/02/28 03:25:31;;;;;;;58.33;19.95;;;;;;;6.39;88.11;94406.31;5105851;28;20034;-78
2023/02/28 03:28:08;;;;;;;50.50;20.90;;;;;;;6.43;88.00;94410.81;5105892;28;20103;-79
2023/02/28 03:30:59;;;;;;;47.42;21.33;;;;;;;6.47;87.61;94415.56;5105815;28;20095;-78
2023/02/28 03:33:34;;;;;;;55.00;20.83;;;;;;;6.50;87.43;94409.75;5105488;28;20260;-78
2023/02/28 03:36:07;;;;;;;52.65;22.50;;;;;;;6.54;87.04;94421.38;5105903;28;20016;-79
2023/02/28 03:39:03;;;;;;;56.33;23.40;;;;;;;6.59;86.86;94419.50;5105611;28;20198;-78
2023/02/28 03:41:38;;;;;;;46.35;19.70;;;;;;;6.65;86.74;94420.22;5105260;28;20036;-78
2023/02/28 03:44:15;;;;;;;55.13;19.48;;;;;;;6.68;86.57;94425.00;5105521;28;20028;-78
2023/02/28 03:46:46;;;;;;;58.97;20.83;;;;;;;6.74;86.29;94428.41;5105722;28;20051;-78
2023/02/28 03:49:33;;;;;;;52.45;20.42;;;;;;;6.75;86.02;94422.03;5105552;28;20039;-78
2023/02/28 03:52:03;;;;;;;57.42;20.48;;;;;;;6.75;85.98;94424.69;5105388;28;20024;-78
2023/02/28 03:54:32;;;;;;;40.78;20.80;;;;;;;6.80;85.59;94430.75;5104242;28;20024;-78
2023/02/28 03:57:13;;;;;;;55.65;18.67;;;;;;;6.84;85.48;94431.00;5105388;28;20020;-78
2023/02/28 03:59:47;;;;;;;59.47;18.58;;;;;;;6.87;85.18;94429.66;5105464;28;20027;-78
2023/02/28 04:02:13;;;;;;;74.53;19.15;;;;;;;6.83;84.76;94422.22;5105285;28;20345;-78
2023/02/28 04:04:38;;;;;;;41.22;18.52;;;;;;;6.88;84.69;94428.56;5105176;28;20055;-78
2023/02/28 04:07:08;;;;;;;32.90;16.63;;;;;;;6.86;84.56;94420.91;5105069;28;20027;-77
2023/02/28 04:09:34;;;;;;;40.25;17.08;;;;;;;6.83;84.43;94427.53;5105070;28;20091;-77
2023/02/28 04:12:00;;;;;;;41.47;16.23;;;;;;;6.85;84.76;94426.47;5104857;28;20030;-77
2023/02/28 04:14:26;;;;;;;31.40;15.65;;;;;;;6.86;84.59;94430.69;5105116;28;20064;-77
2023/02/28 04:16:52;;;;;;;36.47;16.80;;;;;;;6.86;84.24;94431.50;5105004;28;20111;-77
2023/02/28 04:19:18;;;;;;;28.17;14.15;;;;;;;6.90;83.93;94434.38;5105015;28;20016;-79
2023/02/28 04:21:46;;;;;;;29.55;14.10;;;;;;;6.90;83.61;94426.44;5103662;28;20443;-77
2023/02/28 04:24:18;;;;;;;29.17;14.57;;;;;;;6.86;83.22;94426.22;5104565;28;20027;-78
2023/02/28 04:26:46;;;;;;;27.48;14.45;;;;;;;6.87;83.43;94427.78;5104575;28;20039;-78
2023/02/28 04:29:13;;;;;;;35.42;13.05;;;;;;;6.83;82.87;94426.75;5103566;28;20051;-78
2023/02/28 04:31:39;;;;;;;26.35;12.88;;;;;;;6.80;82.51;94422.00;5104818;28;20051;-78
2023/02/28 04:34:05;;;;;;;24.92;12.73;;;;;;;6.80;82.39;94430.75;5104637;28;20222;-78
2023/02/28 04:36:31;;;;;;;28.58;13.25;;;;;;;6.79;82.45;94425.72;5104542;28;20035;-78
2023/02/28 04:38:56;;;;;;;26.52;13.35;;;;;;;6.80;81.84;94427.31;5104552;28;20087;-78
2023/02/28 04:41:22;;;;;;;25.10;12.15;;;;;;;6.78;81.68;94435.53;5104533;28;20015;-78
2023/02/28 04:43:48;;;;;;;35.22;13.55;;;;;;;6.73;81.91;94434.75;5104258;28;20024;-78
2023/02/28 04:46:13;;;;;;;40.45;13.60;;;;;;;6.74;81.86;94444.31;5104297;28;20212;-78
2023/02/28 04:48:40;;;;;;;35.65;14.27;;;;;;;6.72;81.98;94441.91;5104316;28;20019;-78
2023/02/28 04:51:08;;;;;;;28.50;13.98;;;;;;;6.74;81.85;94446.94;5104386;28;20180;-79
2023/02/28 04:53:34;;;;;;;28.58;13.90;;;;;;;6.71;81.99;94445.63;5104355;28;20227;-78
2023/02/28 04:56:00;;;;;;;27.27;12.88;;;;;;;6.70;81.76;94453.88;5104152;28;20030;-78
2023/02/28 04:58:26;;;;;;;31.75;13.90;;;;;;;6.68;81.75;94462.09;5104166;28;20047;-78
2023/02/28 05:00:52;;;;;;;33.92;14.23;;;;;;;6.71;81.80;94460.72;5104002;28;20322;-78
2023/02/28 05:03:20;;;;;;;29.90;14.60;;;;;;;6.70;81.79;94461.81;5103869;28;20035;-78
2023/02/28 05:05:46;;;;;;;29.92;13.93;;;;;;;6.66;81.68;94458.91;5103873;28;20039;-79
2023/02/28 05:08:11;;;;;;;30.33;13.93;;;;;;;6.63;81.85;94454.97;5104055;28;20203;-79
2023/02/28 05:10:37;;;;;;;33.20;15.30;;;;;;;6.64;81.87;94461.03;5104062;28;20020;-78
2023/02/28 05:13:02;;;;;;;35.95;14.20;;;;;;;6.66;81.95;94450.19;5103759;28;20020;-78
2023/02/28 05:15:28;;;;;;;38.67;15.57;;;;;;;6.67;81.90;94460.47;5103772;28;20028;-78
2023/02/28 05:17:53;;;;;;;82.90;16.52;;;;;;;6.69;81.84;94457.56;5103711;28;20020;-78
2023/02/28 05:20:19;;;;;;;47.65;16.25;;;;;;;6.68;81.69;94461.28;5103717;28;20062;-78
2023/02/28 05:22:44;;;;;;;36.80;15.60;;;;;;;6.65;82.10;94459.19;5103707;28;20210;-79
2023/02/28 05:25:18;;;;;;;54.47;16.77;;;;;;;6.65;82.38;94467.13;5103559;28;20024;-79
2023/02/28 05:27:44;;;;;;;35.00;16.02;;;;;;;6.59;82.66;94467.16;5103520;28;20275;-79
2023/02/28 05:30:12;;;;;;;35.88;15.38;;;;;;;6.61;82.75;94477.47;5103774;28;20034;-79
2023/02/28 05:32:38;;;;;;;40.00;18.17;;;;;;;6.63;82.83;94480.63;5103682;28;20218;-79
2023/02/28 05:35:04;;;;;;;39.10;18.52;;;;;;;6.68;82.73;94479.84;5103369;28;20016;-78
2023/02/28 05:37:29;;;;;;;47.55;18.92;;;;;;;6.69;82.50;94476.91;5103389;28;20306;-79
2023/02/28 05:39:55;;;;;;;45.05;18.17;;;;;;;6.75;82.44;94488.25;5102112;28;20023;-80
2023/02/28 05:42:20;;;;;;;42.42;17.67;;;;;;;6.78;82.15;94477.91;5103490;28;20020;-78
2023/02/28 05:44:46;;;;;;;32.42;16.30;;;;;;;6.82;82.07;94491.41;5103333;28;20084;-79
2023/02/28 05:47:15;;;;;;;37.70;15.57;;;;;;;6.87;81.93;94480.78;5102922;28;20115;-79
2023/02/28 05:49:41;;;;;;;36.53;15.95;;;;;;;6.92;81.63;94483.41;5103338;28;20020;-79
2023/02/28 05:52:06;;;;;;;45.97;20.13;;;;;;;6.94;81.40;94491.88;5103367;28;20375;-79
2023/02/28 05:54:32;;;;;;;44.67;19.38;;;;;;;6.95;81.23;94496.09;5103226;28;20043;-79
2023/02/28 05:56:57;;;;;;;56.60;26.35;;;;;;;6.95;81.31;94497.97;5103130;28;20019;-79
2023/02/28 05:59:23;;;;;;;51.97;23.27;;;;;;;6.98;81.39;94500.88;5102983;28;20020;-79
2023/02/28 06:01:48;;;;;;;41.83;21.33;;;;;;;7.02;81.40;94493.13;5103053;28;20020;-79
2023/02/28 06:04:17;;;;;;;38.42;18.10;;;;;;;7.05;81.16;94497.13;5101729;28;20345;-79
2023/02/28 06:06:50;;;;;;;36.63;18.73;;;;;;;7.02;81.05;94498.44;5103042;28;20020;-79
2023/02/28 06:09:17;;;;;;;37.55;18.13;;;;;;;7.09;80.41;94498.94;5102112;28;20200;-79
2023/02/28 06:11:43;;;;;;;36.20;17.00;;;;;;;7.09;80.64;94493.63;5102833;28;20024;-79
2023/02/28 06:14:15;;;;;;;37.65;17.58;;;;;;;7.12;80.67;94486.97;5102808;28;20213;-79
2023/02/28 06:16:41;;;;;;;36.90;17.13;;;;;;;7.12;80.52;94492.28;5104103;28;20035;-79
2023/02/28 06:19:06;;;;;;;36.75;17.17;;;;;;;7.17;80.45;94495.69;5109757;28;20028;-79
2023/02/28 06:21:32;;;;;;;35.40;17.88;;;;;;;7.20;80.44;94489.03;5109867;28;20043;-79
2023/02/28 06:23:58;;;;;;;36.40;17.88;;;;;;;7.23;80.53;94491.16;5109581;28;20027;-79
2023/02/28 06:26:24;;;;;;;36.65;16.98;;;;;;;7.30;80.27;94488.19;5109545;28;20222;-79
2023/02/28 06:28:50;;;;;;;35.05;18.35;;;;;;;7.31;80.41;94495.88;5109533;28;20035;-80
2023/02/28 06:31:17;;;;;;;35.10;17.38;;;;;;;7.33;80.36;94493.75;5109639;28;20024;-80
2023/02/28 06:33:44;;;;;;;36.03;16.73;;;;;;;7.38;80.00;94498.19;5109528;28;20057;-79
2023/02/28 06:36:12;;;;;;;34.28;15.95;;;;;;;7.37;79.31;94507.25;5109481;28;20230;-79
2023/02/28 06:38:38;;;;;;;36.85;16.70;;;;;;;7.36;79.84;94505.66;5109323;28;20031;-80
2023/02/28 06:41:05;;;;;;;40.03;16.15;;;;;;;7.36;80.13;94506.44;5109216;28;20054;-80
2023/02/28 06:43:34;;;;;;;32.70;15.88;;;;;;;7.30;79.74;94518.13;5109274;28;20072;-79
2023/02/28 06:46:01;;;;;;;41.15;18.88;;;;;;;7.30;79.55;94512.84;5107955;28;20039;-79
2023/02/28 06:48:27;;;;;;;35.45;16.90;;;;;;;7.32;80.14;94502.75;5108217;28;20042;-79
2023/02/28 06:51:04;;;;;;;35.65;18.65;;;;;;;7.39;79.98;94518.38;5109216;28;20219;-78
2023/02/28 06:53:30;;;;;;;40.90;20.63;;;;;;;7.43;80.03;94514.88;5109276;28;20024;-78
2023/02/28 06:55:56;;;;;;;37.75;19.52;;;;;;;7.43;79.86;94519.41;5109194;28;20030;-78
2023/02/28 06:58:21;;;;;;;42.40;21.25;;;;;;;7.41;79.65;94524.97;5109343;28;20314;-77
2023/02/28 07:00:51;;;;;;;39.90;20.45;;;;;;;7.33;79.77;94520.25;5109221;28;20044;-77
2023/02/28 07:03:18;;;;;;;44.78;20.13;;;;;;;7.26;80.16;94517.09;5108929;28;20038;-77
2023/02/28 07:05:44;;;;;;;40.25;19.60;;;;;;;7.23;80.49;94515.03;5108954;28;20333;-77
2023/02/28 07:08:09;;;;;;;41.90;20.60;;;;;;;7.21;81.16;94514.50;5109330;28;20043;-77
2023/02/28 07:10:37;;;;;;;40.95;21.67;;;;;;;7.17;81.51;94516.91;5109150;28;20092;-79
2023/02/28 07:13:05;;;;;;;43.03;20.77;;;;;;;7.20;81.45;94526.16;5109186;28;20023;-79
2023/02/28 07:15:30;;;;;;;47.97;22.33;;;;;;;7.18;81.44;94520.34;5109077;28;20318;-79
2023/02/28 07:17:56;;;;;;;48.33;22.27;;;;;;;7.18;81.31;94513.19;5109188;28;20064;-80
2023/02/28 07:20:23;;;;;;;52.22;22.92;;;;;;;7.24;82.33;94511.28;5109099;28;20020;-80
2023/02/28 07:22:54;;;;;;;43.05;22.85;;;;;;;7.22;82.01;94513.44;5108843;28;20030;-79
2023/02/28 07:25:21;;;;;;;51.67;24.73;;;;;;;7.26;82.06;94519.75;5109059;28;20057;-79
2023/02/28 07:27:46;;;;;;;45.72;22.35;;;;;;;7.20;81.47;94518.22;5108765;28;20031;-79
2023/02/28 07:30:12;;;;;;;52.50;25.02;;;;;;;7.17;81.13;94526.72;5105808;28;20027;-79
2023/02/28 07:32:38;;;;;;;52.00;22.75;;;;;;;7.18;81.58;94528.28;5105383;28;20032;-83
2023/02/28 07:35:03;;;;;;;53.40;24.42;;;;;;;7.18;81.50;94513.19;5103995;28;20039;-80
2023/02/28 07:37:59;;;;;;;53.97;25.80;;;;;;;7.18;81.62;94515.81;5104976;28;20222;-80
2023/02/28 07:40:25;;;;;;;52.70;24.98;;;;;;;7.20;81.72;94528.81;5102508;28;20316;-80
2023/02/28 07:42:51;;;;;;;48.97;23.33;;;;;;;7.18;81.67;94530.94;5104984;28;20032;-79
2023/02/28 07:45:17;;;;;;;56.30;26.17;;;;;;;7.15;81.81;94529.66;5105026;28;20043;-80
2023/02/28 07:47:43;;;;;;;60.60;25.42;;;;;;;7.19;82.49;94527.25;5105186;28;20040;-80
2023/02/28 07:50:12;;;;;;;48.50;22.42;;;;;;;7.16;82.55;94520.63;5105854;28;20294;-80
2023/02/28 07:52:38;;;;;;;55.15;25.42;;;;;;;7.18;82.90;94520.34;5104394;28;20034;-79
2023/02/28 07:55:05;;;;;;;53.53;25.98;;;;;;;7.21;82.42;94511.84;5105378;28;20213;-79
2023/02/28 07:57:30;;;;;;;59.53;24.02;;;;;;;7.25;82.09;94518.19;5105317;28;20023;-79
2023/02/28 07:59:56;;;;;;;56.85;25.83;;;;;;;7.26;82.00;94511.03;5105169;28;20345;-79
2023/02/28 08:02:21;;;;;;;53.72;25.15;;;;;;;7.31;81.80;94518.97;5105010;28;20035;-79
2023/02/28 08:04:48;;;;;;;53.67;25.65;;;;;;;7.32;81.80;94515.22;5105280;28;20142;-80
2023/02/28 08:07:13;;;;;;;54.63;26.67;;;;;;;7.35;82.18;94514.69;5105120;28;20134;-78
2023/02/28 08:09:40;;;;;;;51.42;23.88;;;;;;;7.33;81.81;94511.50;5105218;28;20028;-79
2023/02/28 08:12:07;;;;;;;46.47;22.52;;;;;;;7.35;82.01;94517.34;5105021;28;20023;-79
2023/02/28 08:14:33;;;;;;;57.13;24.67;;;;;;;7.37;81.93;94515.97;5104968;28;20035;-80
2023/02/28 08:16:58;;;;;;;54.30;25.30;;;;;;;7.38;82.35;94520.22;5103726;28;20020;-82
2023/02/28 08:19:24;;;;;;;49.85;23.67;;;;;;;7.39;82.29;94524.47;5104830;28;20028;-79
2023/02/28 08:21:49;;;;;;;62.35;25.05;;;;;;;7.46;82.52;94515.41;5104868;28;20047;-80
2023/02/28 08:24:14;;;;;;;52.92;24.35;;;;;;;7.48;82.27;94526.53;5104416;28;20032;-79
2023/02/28 08:26:40;;;;;;;57.03;25.73;;;;;;;7.51;82.43;94521.47;5105041;28;20097;-80
2023/02/28 08:29:05;;;;;;;55.85;24.13;;;;;;;7.49;81.97;94514.81;5104807;28;20238;-79
2023/02/28 08:31:31;;;;;;;55.33;23.67;;;;;;;7.52;81.68;94520.38;5104587;28;20341;-79
2023/02/28 08:33:58;;;;;;;44.13;22.08;;;;;;;7.48;81.46;94527.31;5104712;28;20031;-79
2023/02/28 08:36:25;;;;;;;54.63;23.67;;;;;;;7.35;82.21;94536.69;5104530;28;20028;-80
2023/02/28 08:38:50;;;;;;;55.25;23.17;;;;;;;7.33;82.84;94528.22;5104432;28;20028;-80
2023/02/28 08:41:16;;;;;;;60.40;24.02;;;;;;;7.27;83.48;94525.88;5103982;28;20023;-81
2023/02/28 08:43:41;;;;;;;61.80;24.73;;;;;;;7.22;83.70;94534.63;5104561;28;20031;-80
2023/02/28 08:46:08;;;;;;;64.25;26.05;;;;;;;7.25;84.15;94534.09;5104044;28;20036;-79
2023/02/28 08:48:35;;;;;;;69.07;24.33;;;;;;;7.28;84.69;94527.44;5104350;28;20016;-79
2023/02/28 08:51:04;;;;;;;59.92;24.83;;;;;;;7.31;84.57;94533.00;5104179;28;20023;-80
2023/02/28 08:53:29;;;;;;;73.30;29.85;;;;;;;7.21;84.43;94533.06;5104129;28;20016;-79
2023/02/28 08:56:04;;;;;;;70.25;30.75;;;;;;;7.15;85.04;94534.94;5102959;28;20023;-79
2023/02/28 08:58:30;;;;;;;91.20;34.38;;;;;;;7.16;85.60;94546.34;5104009;28;20117;-81
2023/02/28 09:00:55;;;;;;;91.55;33.45;;;;;;;7.13;85.35;94544.25;5103988;28;20027;-81
2023/02/28 09:03:22;;;;;;;83.65;34.42;;;;;;;7.07;85.35;94540.03;5102694;28;20024;-80
2023/02/28 09:05:55;;;;;;;89.88;35.88;;;;;;;7.12;85.44;94537.34;5103953;28;20024;-77
2023/02/28 09:08:21;;;;;;;90.40;35.75;;;;;;;7.20;85.75;94536.78;5103918;28;20031;-82
2023/02/28 09:10:46;;;;;;;76.80;33.53;;;;;;;7.29;85.76;94532.47;5103933;28;20020;-81
2023/02/28 09:13:12;;;;;;;84.57;34.60;;;;;;;7.38;84.91;94533.47;5103775;28;20024;-84
2023/02/28 09:15:38;;;;;;;86.70;36.30;;;;;;;7.46;84.78;94518.03;5104060;28;20020;-85
2023/02/28 09:18:03;;;;;;;79.68;31.98;;;;;;;7.49;84.29;94522.78;5102571;28;20108;-81
2023/02/28 09:20:29;;;;;;;73.22;31.63;;;;;;;7.55;84.49;94534.94;5103919;28;20030;-84
2023/02/28 09:22:54;;;;;;;75.50;31.13;;;;;;;7.66;84.08;94527.72;5103653;28;20234;-82
2023/02/28 09:25:20;;;;;;;74.07;30.90;;;;;;;7.84;84.16;94530.47;5102210;28;20318;-81
2023/02/28 09:27:45;;;;;;;70.38;29.75;;;;;;;8.05;84.22;94519.66;5103492;28;20030;-84
2023/02/28 09:30:12;;;;;;;63.15;28.88;;;;;;;8.30;83.10;94523.13;5103612;28;20024;-83
2023/02/28 09:32:38;;;;;;;83.53;30.75;;;;;;;8.47;82.29;94520.84;5103777;28;20035;-83
2023/02/28 09:35:04;;;;;;;66.63;29.45;;;;;;;8.62;81.23;94528.63;5103539;28;20282;-83
2023/02/28 09:37:30;;;;;;;77.78;28.67;;;;;;;8.80;80.34;94523.66;5103475;28;20069;-82
2023/02/28 09:39:56;;;;;;;64.72;28.90;;;;;;;8.88;79.28;94517.69;5103645;28;20047;-81
2023/02/28 09:42:28;;;;;;;61.10;27.90;;;;;;;8.99;79.24;94526.31;5102051;28;20019;-84
2023/02/28 09:44:54;;;;;;;63.53;28.30;;;;;;;9.14;78.58;94518.16;5103301;28;20024;-83
2023/02/28 09:47:39;;;;;;;57.28;27.40;;;;;;;9.27;78.24;94521.16;5103270;28;20081;-84
2023/02/28 09:50:23;;;;;;;64.95;28.02;;;;;;;9.35;78.04;94513.31;5103244;28;20028;-83
2023/02/28 09:52:50;;;;;;;69.03;28.13;;;;;;;9.37;78.44;94508.50;5102343;28;20052;-85
2023/02/28 09:55:15;;;;;;;59.17;26.73;;;;;;;9.44;78.05;94508.94;5103275;28;20087;-85
2023/02/28 09:57:42;;;;;;;66.85;29.35;;;;;;;9.49;77.78;94510.72;5103201;28;20035;-82
2023/02/28 10:00:17;;;;;;;63.97;26.92;;;;;;;9.55;77.02;94511.44;5103445;28;20020;-84
2023/02/28 10:03:17;;;;;;;66.38;28.60;;;;;;;9.55;76.92;94506.13;5102841;28;20091;-84
2023/02/28 10:05:58;;;;;;;67.78;26.08;;;;;;;9.54;76.92;94502.66;5102967;28;20043;-80
2023/02/28 10:08:31;;;;;;;66.63;27.40;;;;;;;9.57;77.40;94498.63;5103081;28;20021;-80
2023/02/28 10:11:10;;;;;;;69.07;26.08;;;;;;;9.58;77.36;94495.66;5102705;28;20023;-81
2023/02/28 10:14:21;;;;;;;56.75;25.90;;;;;;;9.59;77.19;94491.16;5102942;28;20337;-82
2023/02/28 10:16:55;;;;;;;58.00;24.73;;;;;;;9.63;77.17;94494.81;5083860;28;20047;-81
2023/02/28 10:19:32;;;;;;;61.47;25.92;;;;;;;9.59;77.10;94496.47;5101964;28;20311;-82
2023/02/28 10:22:19;;;;;;;63.20;25.75;;;;;;;9.65;77.75;94484.66;5102650;28;20096;-82
2023/02/28 10:24:56;;;;;;;63.80;26.15;;;;;;;9.75;78.38;94484.50;5102774;28;20038;-81
2023/02/28 10:27:28;;;;;;;60.90;25.55;;;;;;;9.82;77.31;94476.91;5101700;28;20031;-81
2023/02/28 10:29:56;;;;;;;55.17;26.17;;;;;;;9.90;76.79;94480.00;5102922;28;20028;-82
2023/02/28 10:32:30;;;;;;;56.90;23.73;;;;;;;10.03;76.00;94477.34;5102794;28;20199;-82
2023/02/28 10:35:10;;;;;;;54.97;23.55;;;;;;;10.20;75.11;94479.44;5102923;28;20062;-82
2023/02/28 10:37:40;;;;;;;46.25;19.10;;;;;;;10.27;76.19;94459.63;5102791;28;20047;-83
2023/02/28 10:40:28;;;;;;;35.75;11.73;;;;;;;10.42;75.91;94457.47;5102565;28;20023;-82
2023/02/28 10:42:56;;;;;;;32.53;11.95;;;;;;;10.69;74.66;94455.88;5102168;28;20334;-82
2023/02/28 10:45:23;;;;;;;26.75;10.93;;;;;;;10.96;73.83;94452.34;5102798;28;20215;-83
2023/02/28 10:47:57;;;;;;;24.08;10.88;;;;;;;11.21;72.67;94439.53;5102455;28;20111;-82
2023/02/28 10:50:44;;;;;;;29.33;11.52;;;;;;;11.44;71.58;94443.00;5102691;28;20031;-83
2023/02/28 10:53:10;;;;;;;36.13;13.07;;;;;;;11.63;70.97;94434.78;5102849;28;20024;-82
2023/02/28 10:55:36;;;;;;;41.45;13.38;;;;;;;11.71;70.15;94431.38;5102558;28;20091;-83
2023/02/28 10:58:02;;;;;;;32.22;12.00;;;;;;;11.75;69.18;94424.34;5102576;28;20051;-82
2023/02/28 11:00:35;;;;;;;33.78;11.13;;;;;;;11.92;68.72;94428.22;5102274;28;20345;-83
2023/02/28 11:03:00;;;;;;;30.08;10.23;;;;;;;12.02;67.95;94419.94;5103079;28;20019;-84
2023/02/28 11:05:35;;;;;;;28.30;10.18;;;;;;;12.19;66.97;94416.53;5106254;28;20262;-83
2023/02/28 11:08:03;;;;;;;24.20;8.88;;;;;;;12.38;65.39;94411.75;5106331;28;20023;-83
2023/02/28 11:10:34;;;;;;;26.98;9.07;;;;;;;12.55;64.95;94415.56;5106103;28;20020;-84
2023/02/28 11:13:00;;;;;;;36.55;8.50;;;;;;;12.54;64.29;94405.97;5106403;28;20241;-84
2023/02/28 11:15:35;;;;;;;33.25;8.93;;;;;;;12.65;63.13;94408.00;5106225;28;20012;-83
2023/02/28 11:18:12;;;;;;;39.38;8.80;;;;;;;12.70;62.87;94411.63;5106159;28;20056;-82
2023/02/28 11:20:39;;;;;;;19.55;8.75;;;;;;;12.72;61.93;94412.09;5106501;28;20028;-84
2023/02/28 11:23:10;;;;;;;22.85;7.95;;;;;;;12.72;62.09;94404.09;5106151;28;20097;-83
2023/02/28 11:25:38;;;;;;;22.77;8.23;;;;;;;12.74;61.69;94401.88;5105933;28;20023;-85
2023/02/28 11:28:22;;;;;;;31.15;8.40;;;;;;;12.78;62.06;94389.47;5107221;28;20039;-80
2023/02/28 11:31:05;;;;;;;22.52;8.52;;;;;;;12.88;62.39;94399.06;5106207;28;20023;-84
2023/02/28 11:33:53;;;;;;;36.40;10.13;;;;;;;12.91;61.65;94404.59;5105914;28;20020;-87
2023/02/28 11:36:20;;;;;;;40.67;10.48;;;;;;;12.90;61.99;94389.63;5105771;28;20012;-79